createdAt,value
2017-09-12T00:00:07.191Z,93563.76
2017-09-12T00:02:35.854Z,93564.38
2017-09-12T00:05:04.191Z,93561.94
2017-09-12T00:07:32.558Z,93569.15
2017-09-12T00:10:00.899Z,93560.16
2017-09-12T00:12:29.284Z,93563.63
2017-09-12T00:14:57.611Z,93556.88
2017-09-12T00:17:26.137Z,93559.58
2017-09-12T00:19:54.498Z,93565.14
2017-09-12T00:22:22.830Z,93559.80
2017-09-12T00:24:51.515Z,93563.84
2017-09-12T00:27:19.846Z,93566.67
2017-09-12T00:29:48.211Z,93570.17
2017-09-12T00:32:16.562Z,93571.17
2017-09-12T00:34:44.898Z,93574.57
2017-09-12T00:37:13.229Z,93575.08
2017-09-12T00:39:41.787Z,93573.56
2017-09-12T00:42:10.146Z,93573.56
2017-09-12T00:44:38.643Z,93574.95
2017-09-12T00:47:06.994Z,93570.55
2017-09-12T00:49:35.331Z,93571.30
2017-09-12T00:52:03.663Z,93580.38
2017-09-12T00:54:31.990Z,93566.14
2017-09-12T00:57:00.339Z,93568.03
2017-09-12T00:59:28.706Z,93564.49
2017-09-12T01:01:57.123Z,93571.28
2017-09-12T01:04:25.470Z,93567.34
2017-09-12T01:06:53.864Z,93573.91
2017-09-12T01:09:22.252Z,93567.72
2017-09-12T01:11:50.583Z,93577.83
2017-09-12T01:14:18.915Z,93575.77
2017-09-12T01:16:47.247Z,93573.23
2017-09-12T01:19:15.631Z,93575.63
2017-09-12T01:21:43.976Z,93571.03
2017-09-12T01:24:12.362Z,93577.34
2017-09-12T01:26:40.697Z,93582.87
2017-09-12T01:29:09.034Z,93581.05
2017-09-12T01:31:37.403Z,93583.56
2017-09-12T01:34:05.759Z,93585.08
2017-09-12T01:36:34.094Z,93580.84
2017-09-12T01:39:02.427Z,93579.42
2017-09-12T01:41:30.795Z,93575.23
2017-09-12T01:43:59.131Z,93579.88
2017-09-12T01:46:27.526Z,93570.92
2017-09-12T01:48:55.842Z,93572.95
2017-09-12T01:51:24.202Z,93581.70
2017-09-12T01:53:52.546Z,93580.03
2017-09-12T01:56:20.877Z,93574.73
2017-09-12T01:58:49.345Z,93573.95
2017-09-12T02:01:17.724Z,93577.94
2017-09-12T02:03:46.058Z,93578.34
2017-09-12T02:06:14.389Z,93584.48
2017-09-12T02:08:42.722Z,93578.91
2017-09-12T02:11:11.087Z,93582.64
2017-09-12T02:13:39.472Z,93586.16
2017-09-12T02:16:07.798Z,93585.61
2017-09-12T02:18:36.146Z,93589.49
2017-09-12T02:21:04.486Z,93591.38
2017-09-12T02:23:32.822Z,93592.73
2017-09-12T02:26:01.158Z,93595.09
2017-09-12T02:28:29.558Z,93595.16
2017-09-12T02:30:57.894Z,93592.34
2017-09-12T02:33:26.846Z,93599.36
2017-09-12T02:35:55.199Z,93588.03
2017-09-12T02:38:23.540Z,93593.11
2017-09-12T02:40:51.862Z,93590.73
2017-09-12T02:43:20.203Z,93592.41
2017-09-12T02:45:48.571Z,93596.30
2017-09-12T02:48:16.908Z,93589.16
2017-09-12T02:50:45.246Z,93588.31
2017-09-12T02:53:13.578Z,93600.35
2017-09-12T02:55:41.936Z,93600.92
2017-09-12T02:58:10.318Z,93605.34
2017-09-12T03:00:38.675Z,93597.91
2017-09-12T03:03:07.011Z,93597.55
2017-09-12T03:05:35.374Z,93600.63
2017-09-12T03:08:03.712Z,93611.52
2017-09-12T03:10:32.202Z,93604.52
2017-09-12T03:13:00.554Z,93610.68
2017-09-12T03:15:29.222Z,93617.83
2017-09-12T03:17:57.574Z,93614.70
2017-09-12T03:20:25.938Z,93619.20
2017-09-12T03:22:54.274Z,93618.76
2017-09-12T03:25:22.611Z,93614.87
2017-09-12T03:27:50.945Z,93621.33
2017-09-12T03:30:19.331Z,93615.53
2017-09-12T03:32:47.663Z,93620.70
2017-09-12T03:35:16.042Z,93619.65
2017-09-12T03:37:44.383Z,93621.47
2017-09-12T03:40:12.730Z,93618.58
2017-09-12T03:42:41.098Z,93627.11
2017-09-12T03:45:09.429Z,93630.07
2017-09-12T03:47:37.762Z,93633.83
2017-09-12T03:50:06.123Z,93627.32
2017-09-12T03:52:34.462Z,93629.02
2017-09-12T03:55:02.798Z,93633.36
2017-09-12T03:57:31.134Z,93634.03
2017-09-12T03:59:59.466Z,93633.19
2017-09-12T04:02:27.803Z,93640.11
2017-09-12T04:04:56.162Z,93640.76
2017-09-12T04:07:24.686Z,93635.93
2017-09-12T04:09:53.045Z,93646.03
2017-09-12T04:12:21.378Z,93649.66
2017-09-12T04:14:49.722Z,93653.18
2017-09-12T04:17:18.075Z,93647.14
2017-09-12T04:19:46.435Z,93641.92
2017-09-12T04:22:14.766Z,93649.67
2017-09-12T04:24:43.117Z,93653.80
2017-09-12T04:27:11.465Z,93660.30
2017-09-12T04:29:39.794Z,93659.11
2017-09-12T04:32:08.163Z,93650.29
2017-09-12T04:34:36.494Z,93649.80
2017-09-12T04:37:04.827Z,93656.34
2017-09-12T04:39:33.763Z,93650.37
2017-09-12T04:42:02.126Z,93652.61
2017-09-12T04:44:30.462Z,93661.13
2017-09-12T04:46:58.806Z,93659.33
2017-09-12T04:49:27.149Z,93657.19
2017-09-12T04:51:55.509Z,93662.58
2017-09-12T04:54:24.840Z,93664.08
2017-09-12T04:56:53.345Z,93668.42
2017-09-12T04:59:21.676Z,93662.14
2017-09-12T05:01:50.000Z,93670.39
2017-09-12T05:04:18.335Z,93670.23
2017-09-12T05:06:46.697Z,93683.61
2017-09-12T05:09:15.058Z,93685.73
2017-09-12T05:11:43.414Z,93683.91
2017-09-12T05:14:11.751Z,93688.41
2017-09-12T05:16:40.078Z,93694.20
2017-09-12T05:19:08.414Z,93694.72
2017-09-12T05:21:36.774Z,93693.55
2017-09-12T05:24:05.107Z,93700.77
2017-09-12T05:26:33.471Z,93699.47
2017-09-12T05:29:01.878Z,93701.23
2017-09-12T05:31:30.238Z,93706.17
2017-09-12T05:33:58.627Z,93717.57
2017-09-12T05:36:26.966Z,93715.75
2017-09-12T05:38:55.322Z,93718.48
2017-09-12T05:41:23.670Z,93719.48
2017-09-12T05:43:52.003Z,93714.16
2017-09-12T05:46:20.422Z,93724.93
2017-09-12T05:48:48.754Z,93717.74
2017-09-12T05:51:17.927Z,93715.17
2017-09-12T05:53:46.435Z,93721.81
2017-09-12T05:56:14.768Z,93722.39
2017-09-12T05:58:43.107Z,93727.42
2017-09-12T06:01:11.449Z,93728.27
2017-09-12T06:03:39.821Z,93734.48
2017-09-12T06:06:08.163Z,93732.16
2017-09-12T06:08:36.496Z,93734.52
2017-09-12T06:11:04.832Z,93736.24
2017-09-12T06:13:33.198Z,93737.97
2017-09-12T06:16:01.748Z,93745.86
2017-09-12T06:18:30.166Z,93750.84
2017-09-12T06:20:58.525Z,93755.43
2017-09-12T06:23:26.873Z,93755.58
2017-09-12T06:25:55.200Z,93758.14
2017-09-12T06:28:23.531Z,93762.81
2017-09-12T06:30:51.863Z,93765.11
2017-09-12T06:33:20.198Z,93772.38
2017-09-12T06:35:48.548Z,93774.63
2017-09-12T06:38:16.957Z,93775.40
2017-09-12T06:40:45.341Z,93775.43
2017-09-12T06:43:13.683Z,93775.30
2017-09-12T06:45:42.036Z,93786.30
2017-09-12T06:48:10.379Z,93786.77
2017-09-12T06:50:38.715Z,93781.72
2017-09-12T06:53:07.059Z,93784.19
2017-09-12T06:55:35.407Z,93789.03
2017-09-12T06:58:03.758Z,93791.35
2017-09-12T07:00:32.111Z,93789.84
2017-09-12T07:03:00.494Z,93801.22
2017-09-12T07:05:28.824Z,93795.50
2017-09-12T07:07:57.158Z,93807.73
2017-09-12T07:10:25.494Z,93801.65
2017-09-12T07:12:53.822Z,93813.19
2017-09-12T07:15:22.154Z,93812.81
2017-09-12T07:17:50.488Z,93823.44
2017-09-12T07:20:18.865Z,93827.06
2017-09-12T07:22:47.579Z,93835.93
2017-09-12T07:25:15.917Z,93838.76
2017-09-12T07:27:44.258Z,93841.64
2017-09-12T07:30:12.594Z,93845.65
2017-09-12T07:32:40.930Z,93842.53
2017-09-12T07:35:09.339Z,93850.64
2017-09-12T07:37:37.764Z,93854.52
2017-09-12T07:40:06.091Z,93856.71
2017-09-12T07:42:34.427Z,93863.75
2017-09-12T07:45:02.859Z,93864.80
2017-09-12T07:47:31.238Z,93866.09
2017-09-12T07:49:59.598Z,93877.73
2017-09-12T07:52:27.922Z,93870.59
2017-09-12T07:54:56.265Z,93875.34
2017-09-12T07:57:24.619Z,93880.03
2017-09-12T07:59:52.955Z,93880.92
2017-09-12T08:02:21.284Z,93875.63
2017-09-12T08:04:49.612Z,93877.22
2017-09-12T08:07:17.966Z,93880.02
2017-09-12T08:09:46.298Z,93894.87
2017-09-12T08:12:14.662Z,93891.96
2017-09-12T08:14:43.052Z,93891.69
2017-09-12T08:17:11.375Z,93901.52
2017-09-12T08:19:39.850Z,93898.84
2017-09-12T08:22:08.211Z,93904.77
2017-09-12T08:24:36.546Z,93908.25
2017-09-12T08:27:04.878Z,93901.29
2017-09-12T08:29:33.298Z,93905.86
2017-09-12T08:32:01.634Z,93902.63
2017-09-12T08:34:30.015Z,93914.52
2017-09-12T08:36:58.395Z,93910.58
2017-09-12T08:39:26.726Z,93926.48
2017-09-12T08:41:55.057Z,93930.01
2017-09-12T08:44:23.406Z,93926.02
2017-09-12T08:46:51.743Z,93931.11
2017-09-12T08:49:20.091Z,93930.67
2017-09-12T08:51:48.426Z,93933.33
2017-09-12T08:54:16.758Z,93932.34
2017-09-12T08:56:45.094Z,93945.26
2017-09-12T08:59:13.647Z,93948.11
2017-09-12T09:01:42.006Z,93950.52
2017-09-12T09:04:10.326Z,93955.03
2017-09-12T09:06:38.662Z,93956.09
2017-09-12T09:09:07.230Z,93944.36
2017-09-12T09:11:35.769Z,93945.23
2017-09-12T09:14:04.169Z,93948.32
2017-09-12T09:16:32.567Z,93945.31
2017-09-12T09:19:00.899Z,93949.11
2017-09-12T09:21:30.118Z,93953.70
2017-09-12T09:23:58.452Z,93957.91
2017-09-12T09:26:26.790Z,93963.78
2017-09-12T09:28:55.122Z,93958.33
2017-09-12T09:31:23.464Z,93956.98
2017-09-12T09:33:51.793Z,93958.21
2017-09-12T09:36:20.203Z,93965.30
2017-09-12T09:38:48.541Z,93963.43
2017-09-12T09:41:16.894Z,93955.97
2017-09-12T09:43:45.225Z,93953.91
2017-09-12T09:46:13.558Z,93962.43
2017-09-12T09:48:41.894Z,93966.96
2017-09-12T09:51:10.280Z,93969.70
2017-09-12T09:53:38.734Z,93979.30
2017-09-12T09:56:07.071Z,93982.75
2017-09-12T09:58:35.416Z,93995.58
2017-09-12T10:01:03.774Z,93989.97
2017-09-12T10:03:32.131Z,93980.39
2017-09-12T10:06:00.527Z,93980.25
2017-09-12T10:08:28.883Z,93981.55
2017-09-12T10:10:57.227Z,93980.94
2017-09-12T10:13:25.566Z,93981.38
2017-09-12T10:15:53.926Z,93988.00
2017-09-12T10:18:22.260Z,93986.87
2017-09-12T10:20:50.638Z,94002.54
2017-09-12T10:23:18.995Z,93999.94
2017-09-12T10:25:47.346Z,94016.53
2017-09-12T10:28:15.734Z,94033.21
2017-09-12T10:30:44.099Z,94032.61
2017-09-12T10:33:12.462Z,94041.85
2017-09-12T10:35:40.798Z,94036.62
2017-09-12T10:38:09.157Z,94041.02
2017-09-12T10:40:37.491Z,94042.09
2017-09-12T10:43:05.826Z,94049.19
2017-09-12T10:45:34.178Z,94054.23
2017-09-12T10:48:02.655Z,94056.56
2017-09-12T10:50:31.034Z,94063.92
2017-09-12T10:52:59.391Z,94060.11
2017-09-12T10:55:27.726Z,94059.95
2017-09-12T10:57:56.075Z,94059.97
2017-09-12T11:00:24.411Z,94054.86
2017-09-12T11:02:52.770Z,94057.73
2017-09-12T11:05:21.119Z,94056.86
2017-09-12T11:07:49.450Z,94057.55
2017-09-12T11:10:18.165Z,94058.48
2017-09-12T11:12:46.544Z,94056.42
2017-09-12T11:15:14.903Z,94067.88
2017-09-12T11:17:43.267Z,94065.75
2017-09-12T11:20:11.649Z,94067.96
2017-09-12T11:22:40.238Z,94072.68
2017-09-12T11:25:08.562Z,94073.17
2017-09-12T11:27:36.943Z,94070.22
2017-09-12T11:30:05.307Z,94081.15
2017-09-12T11:32:33.648Z,94077.23
2017-09-12T11:35:02.083Z,94083.16
2017-09-12T11:37:30.455Z,94084.66
2017-09-12T11:39:58.797Z,94080.33
2017-09-12T11:42:27.163Z,94081.50
2017-09-12T11:44:55.536Z,94079.20
2017-09-12T11:47:23.877Z,94077.69
2017-09-12T11:49:52.211Z,94077.00
2017-09-12T11:52:20.604Z,94076.88
2017-09-12T11:54:48.977Z,94083.70
2017-09-12T11:57:17.330Z,94088.83
2017-09-12T11:59:45.773Z,94082.28
2017-09-12T12:02:15.318Z,94082.75
2017-09-12T12:04:43.697Z,94094.16
2017-09-12T12:07:12.074Z,94088.59
2017-09-12T12:09:40.459Z,94084.67
2017-09-12T12:12:08.967Z,94081.50
2017-09-12T12:14:37.375Z,94082.81
2017-09-12T12:17:05.713Z,94082.42
2017-09-12T12:19:34.143Z,94083.47
2017-09-12T12:22:02.472Z,94083.08
2017-09-12T12:26:58.303Z,94075.19
2017-09-12T12:29:26.633Z,94083.16
2017-09-12T12:31:54.990Z,94081.78
2017-09-12T12:34:23.322Z,94098.13
2017-09-12T12:36:51.695Z,94091.47
2017-09-12T12:39:20.076Z,94090.66
2017-09-12T12:41:48.440Z,94089.45
2017-09-12T12:44:16.783Z,94088.33
2017-09-12T12:46:45.246Z,94086.25
2017-09-12T12:49:13.583Z,94097.64
2017-09-12T12:51:41.921Z,94094.34
2017-09-12T12:54:10.358Z,94101.63
2017-09-12T12:56:38.719Z,94105.14
2017-09-12T12:59:07.053Z,94146.89
2017-09-12T13:01:35.386Z,94156.08
2017-09-12T13:04:03.765Z,94163.09
2017-09-12T13:06:32.098Z,94152.66
2017-09-12T13:09:00.523Z,94134.11
2017-09-12T13:11:28.859Z,94130.83
2017-09-12T13:13:57.839Z,94141.44
2017-09-12T13:16:26.275Z,94155.82
2017-09-12T13:18:54.605Z,94158.75
2017-09-12T13:21:22.986Z,94168.30
2017-09-12T13:23:51.337Z,94175.81
2017-09-12T13:26:19.850Z,94177.23
2017-09-12T13:28:48.177Z,94174.42
2017-09-12T13:31:16.616Z,94186.61
2017-09-12T13:33:44.975Z,94178.36
2017-09-12T13:36:13.311Z,94160.64
2017-09-12T13:38:41.649Z,94156.66
2017-09-12T13:41:10.002Z,94164.67
2017-09-12T13:43:38.361Z,94165.05
2017-09-12T13:46:06.959Z,94164.54
2017-09-12T13:48:35.374Z,94167.48
2017-09-12T13:51:03.743Z,94177.11
2017-09-12T13:53:32.583Z,94179.50
2017-09-12T13:56:00.938Z,94178.50
2017-09-12T13:58:29.335Z,94182.06
2017-09-12T14:00:58.871Z,94186.98
2017-09-12T14:03:27.811Z,94192.45
2017-09-12T14:05:56.168Z,94196.02
2017-09-12T14:08:24.520Z,94199.13
2017-09-12T14:10:52.907Z,94203.74
2017-09-12T14:13:23.138Z,94200.57
2017-09-12T14:15:51.682Z,94200.36
2017-09-12T14:18:22.402Z,94194.87
2017-09-12T14:20:52.680Z,94189.09
2017-09-12T14:23:27.395Z,94196.07
2017-09-12T14:25:58.967Z,94201.17
2017-09-12T14:28:27.294Z,94200.13
2017-09-12T14:30:55.634Z,94206.91
2017-09-12T14:33:23.989Z,94203.02
2017-09-12T14:35:52.321Z,94208.47
2017-09-12T14:38:22.674Z,94215.16
2017-09-12T14:40:51.004Z,94214.02
2017-09-12T14:43:19.578Z,94237.61
2017-09-12T14:45:47.914Z,94252.19
2017-09-12T14:48:16.248Z,94241.02
2017-09-12T14:50:44.591Z,94233.50
2017-09-12T14:53:13.028Z,94236.64
2017-09-12T14:55:41.427Z,94228.65
2017-09-12T14:58:09.890Z,94228.32
2017-09-12T15:00:38.251Z,94231.14
2017-09-12T15:03:06.647Z,94242.67
2017-09-12T15:05:35.073Z,94252.71
2017-09-12T15:08:04.372Z,94252.38
2017-09-12T15:10:32.733Z,94253.81
2017-09-12T15:13:01.091Z,94254.39
2017-09-12T15:15:29.490Z,94251.97
2017-09-12T15:17:57.823Z,94264.91
2017-09-12T15:20:26.187Z,94273.05
2017-09-12T15:22:54.510Z,94259.84
2017-09-12T15:25:22.845Z,94256.28
2017-09-12T15:27:51.206Z,94256.34
2017-09-12T15:30:19.535Z,94259.27
2017-09-12T15:32:47.870Z,94250.55
2017-09-12T15:35:16.206Z,94248.66
2017-09-12T15:37:44.542Z,94251.98
2017-09-12T15:40:12.890Z,94245.13
2017-09-12T15:42:41.210Z,94249.81
2017-09-12T15:45:09.767Z,94261.00
2017-09-12T15:47:38.091Z,94253.55
2017-09-12T15:50:06.474Z,94254.98
2017-09-12T15:52:34.810Z,94251.88
2017-09-12T15:55:03.171Z,94252.53
2017-09-12T15:57:31.493Z,94253.03
2017-09-12T15:59:59.902Z,94243.84
2017-09-12T16:02:28.226Z,94239.59
2017-09-12T16:04:56.596Z,94242.70
2017-09-12T16:07:25.251Z,94245.95
2017-09-12T16:09:53.583Z,94245.41
2017-09-12T16:12:21.943Z,94246.94
2017-09-12T16:14:50.271Z,94250.60
2017-09-12T16:17:18.661Z,94249.31
2017-09-12T16:19:47.661Z,94254.08
2017-09-12T16:22:16.035Z,94253.82
2017-09-12T16:24:44.410Z,94253.06
2017-09-12T16:27:13.071Z,94250.23
2017-09-12T16:29:41.426Z,94257.36
2017-09-12T16:32:09.897Z,94256.05
2017-09-12T16:34:38.267Z,94259.05
2017-09-12T16:37:06.607Z,94263.70
2017-09-12T16:39:34.942Z,94259.06
2017-09-12T16:42:03.331Z,94266.84
2017-09-12T16:44:31.706Z,94268.23
2017-09-12T16:47:00.337Z,94278.10
2017-09-12T16:49:29.265Z,94284.18
2017-09-12T16:51:57.767Z,94285.97
2017-09-12T16:54:26.123Z,94287.02
2017-09-12T16:56:54.456Z,94284.70
2017-09-12T16:59:22.787Z,94289.09
2017-09-12T17:01:51.114Z,94285.23
2017-09-12T17:04:19.486Z,94290.02
2017-09-12T17:06:47.835Z,94285.22
2017-09-12T17:09:16.170Z,94295.56
2017-09-12T17:11:44.517Z,94291.16
2017-09-12T17:14:12.903Z,94289.86
2017-09-12T17:16:41.281Z,94298.39
2017-09-12T17:19:09.639Z,94294.64
2017-09-12T17:21:37.979Z,94304.73
2017-09-12T17:24:06.326Z,94298.39
2017-09-12T17:26:34.710Z,94293.98
2017-09-12T17:29:03.090Z,94296.58
2017-09-12T17:31:31.436Z,94303.81
2017-09-12T17:33:59.858Z,94297.73
2017-09-12T17:36:28.244Z,94301.58
2017-09-12T17:38:56.570Z,94296.53
2017-09-12T17:41:25.041Z,94304.30
2017-09-12T17:43:53.375Z,94308.81
2017-09-12T17:46:21.723Z,94309.09
2017-09-12T17:48:50.084Z,94318.63
2017-09-12T17:51:18.419Z,94319.03
2017-09-12T17:53:51.320Z,94318.62
2017-09-12T17:56:20.002Z,94314.16
2017-09-12T17:58:48.468Z,94321.73
2017-09-12T18:01:16.814Z,94329.08
2017-09-12T18:03:45.162Z,94329.65
2017-09-12T18:06:13.490Z,94342.16
2017-09-12T18:08:43.970Z,94346.78
2017-09-12T18:11:12.444Z,94348.73
2017-09-12T18:13:40.848Z,94339.97
2017-09-12T18:16:09.174Z,94344.34
2017-09-12T18:18:37.786Z,94347.85
2017-09-12T18:21:06.139Z,94342.28
2017-09-12T18:23:34.475Z,94348.34
2017-09-12T18:26:02.840Z,94350.02
2017-09-12T18:28:31.606Z,94350.92
2017-09-12T18:30:59.991Z,94352.48
2017-09-12T18:33:28.611Z,94352.47
2017-09-12T18:35:57.093Z,94350.27
2017-09-12T18:38:25.460Z,94354.00
2017-09-12T18:40:53.808Z,94360.75
2017-09-12T18:43:22.153Z,94362.97
2017-09-12T18:45:51.047Z,94356.62
2017-09-12T18:48:20.082Z,94362.20
2017-09-12T18:50:48.453Z,94361.03
2017-09-12T18:53:17.847Z,94369.57
2017-09-12T18:55:46.457Z,94371.78
2017-09-12T18:58:15.170Z,94359.69
2017-09-12T19:00:43.507Z,94366.33
2017-09-12T19:03:11.847Z,94359.54
2017-09-12T19:05:40.371Z,94363.53
2017-09-12T19:08:08.730Z,94364.05
2017-09-12T19:10:37.843Z,94366.73
2017-09-12T19:13:06.183Z,94368.13
2017-09-12T19:15:34.799Z,94373.16
2017-09-12T19:18:03.179Z,94383.37
2017-09-12T19:20:31.535Z,94380.65
2017-09-12T19:22:59.998Z,94386.47
2017-09-12T19:25:28.328Z,94377.55
2017-09-12T19:27:56.661Z,94382.56
2017-09-12T19:30:25.030Z,94382.94
2017-09-12T19:32:53.358Z,94381.75
2017-09-12T19:35:21.686Z,94385.63
2017-09-12T19:37:50.049Z,94385.89
2017-09-12T19:40:18.401Z,94391.08
2017-09-12T19:42:46.722Z,94394.04
2017-09-12T19:45:15.051Z,94396.98
2017-09-12T19:47:43.379Z,94408.50
2017-09-12T19:50:11.738Z,94422.37
2017-09-12T19:52:40.089Z,94420.26
2017-09-12T19:55:08.439Z,94415.95
2017-09-12T19:57:36.810Z,94414.28
2017-09-12T20:00:05.143Z,94409.34
2017-09-12T20:02:33.470Z,94407.06
2017-09-12T20:05:01.979Z,94400.56
2017-09-12T20:07:30.367Z,94385.02
2017-09-12T20:09:58.701Z,94384.30
2017-09-12T20:12:27.030Z,94377.02
2017-09-12T20:14:55.360Z,94370.23
2017-09-12T20:17:23.685Z,94371.23
2017-09-12T20:19:52.155Z,94374.06
2017-09-12T20:22:20.495Z,94368.84
2017-09-12T20:24:48.819Z,94362.53
2017-09-12T20:27:17.158Z,94378.34
2017-09-12T20:29:45.483Z,94380.59
2017-09-12T20:32:14.012Z,94371.95
2017-09-12T20:34:42.335Z,94375.98
2017-09-12T20:37:10.667Z,94378.04
2017-09-12T20:39:39.000Z,94383.38
2017-09-12T20:42:07.661Z,94375.25
2017-09-12T20:44:35.987Z,94376.69
2017-09-12T20:47:04.319Z,94373.23
2017-09-12T20:49:32.662Z,94369.61
2017-09-12T20:52:00.996Z,94377.49
2017-09-12T20:54:29.327Z,94375.94
2017-09-12T20:56:57.662Z,94368.22
2017-09-12T20:59:25.999Z,94370.60
2017-09-12T21:01:54.335Z,94371.50
2017-09-12T21:04:22.671Z,94375.51
2017-09-12T21:06:50.990Z,94378.06
2017-09-12T21:09:19.341Z,94386.20
2017-09-12T21:11:47.667Z,94382.09
2017-09-12T21:14:16.024Z,94383.90
2017-09-12T21:16:44.383Z,94378.84
2017-09-12T21:19:12.703Z,94387.17
2017-09-12T21:21:41.060Z,94389.66
2017-09-12T21:24:09.386Z,94384.36
2017-09-12T21:26:37.706Z,94398.79
2017-09-12T21:29:06.040Z,94395.28
2017-09-12T21:31:34.433Z,94397.09
2017-09-12T21:34:02.758Z,94395.25
2017-09-12T21:36:31.074Z,94397.70
2017-09-12T21:38:59.406Z,94399.25
2017-09-12T21:41:27.731Z,94396.57
2017-09-12T21:43:56.059Z,94408.73
2017-09-12T21:46:24.386Z,94402.81
2017-09-12T21:48:52.714Z,94395.44
2017-09-12T21:51:21.047Z,94393.24
2017-09-12T21:53:49.403Z,94393.58
2017-09-12T21:56:17.730Z,94385.45
2017-09-12T21:58:46.115Z,94384.41
2017-09-12T22:01:14.440Z,94389.67
2017-09-12T22:03:42.759Z,94376.00
2017-09-12T22:06:11.096Z,94383.74
2017-09-12T22:08:39.445Z,94381.94
2017-09-12T22:11:07.774Z,94387.87
2017-09-12T22:13:36.115Z,94384.05
2017-09-12T22:16:04.446Z,94380.47
2017-09-12T22:18:32.783Z,94371.79
2017-09-12T22:21:01.114Z,94374.86
2017-09-12T22:23:29.437Z,94370.73
2017-09-12T22:25:57.822Z,94357.70
2017-09-12T22:28:26.152Z,94356.03
2017-09-12T22:30:54.503Z,94341.05
2017-09-12T22:33:22.830Z,94347.77
2017-09-12T22:35:51.167Z,94342.37
2017-09-12T22:38:19.520Z,94354.50
2017-09-12T22:40:47.843Z,94345.47
2017-09-12T22:43:16.179Z,94339.30
2017-09-12T22:45:44.526Z,94336.07
2017-09-12T22:48:12.939Z,94334.91
2017-09-12T22:50:41.294Z,94330.37
2017-09-12T22:53:09.930Z,94329.87
2017-09-12T22:55:38.278Z,94326.38
2017-09-12T22:58:06.654Z,94323.42
2017-09-12T23:00:34.990Z,94320.56
2017-09-12T23:03:03.334Z,94316.00
2017-09-12T23:05:31.789Z,94317.03
2017-09-12T23:08:00.147Z,94316.36
2017-09-12T23:10:28.578Z,94310.20
2017-09-12T23:12:56.966Z,94313.52
2017-09-12T23:15:25.354Z,94308.13
2017-09-12T23:17:53.750Z,94303.45
2017-09-12T23:20:22.078Z,94306.05
2017-09-12T23:22:50.415Z,94299.59
2017-09-12T23:25:18.818Z,94305.24
2017-09-12T23:27:47.157Z,94303.78
2017-09-12T23:30:15.606Z,94301.70
2017-09-12T23:32:43.946Z,94287.29
2017-09-12T23:35:12.282Z,94275.42
2017-09-12T23:37:40.630Z,94280.94
2017-09-12T23:40:08.996Z,94265.36
2017-09-12T23:42:37.351Z,94263.81
2017-09-12T23:45:05.707Z,94262.26
2017-09-12T23:47:34.059Z,94246.80
2017-09-12T23:50:02.394Z,94245.38
2017-09-12T23:52:30.818Z,94242.91
2017-09-12T23:54:59.326Z,94245.25
2017-09-12T23:57:27.698Z,94231.22
2017-09-12T23:59:56.035Z,94227.62
